Aérodrome :
LOGIN :

S'inscrire | Disclaimer

   EN    FR    IT 

 










Légende :    VFR   VFR Marginal   IFR   IFR Intensif   IFR Très Intensif
Visi : 
Plafond : 
>= 8 km
>= 3000ft
5 à 8 km
1000 à 3000 ft
1500m à 5 km
500 à 1000 ft
800 à 1500m
200 à 500 ft
< 800m
< 200 ft
Symboles :   Orages  Brouillard  Fortes neiges  Fortes précipitations  Vent > 20 kt
SIGMETs :   Divers  Orages  Givrage  Turbulence  Onde Orograph.  Cendres Volcan.







- Altitude de l'aérodrome : 83 ft
- Code IATA : LHR
- Voir les cartes d'approche


EGLL - London Heathrow

DERNIER METAR :
  • 221750Z AUTO 08007KT 5000 -RADZ SCT006 BKN020 BKN026 10/10 Q1015 TEMPO BKN005

METARs EXPIRÉS :
  • 221720Z AUTO 09006KT 7000 -RA FEW008 SCT021 BKN032 10/10 Q1015 TEMPO RA BKN008
  • 221650Z AUTO 10007KT 5000 -RADZ SCT006/// SCT011/// BKN019/// //////TCU 11/10 Q1015 TEMPO BKN005
  • 221620Z AUTO 11006KT 5000 -RADZ FEW007 SCT013 BKN023 11/10 Q1016 NOSIG
  • 221550Z AUTO 10008KT 080V150 5000 -RA SCT007 BKN012 BKN019 11/10 Q1016 TEMPO BKN008
  • 221520Z AUTO 10006KT 6000 -RA SCT013 BKN024 BKN040 11/10 Q1017 NOSIG

TAF TAF EGLL
Valide du 22 à 18h jusqu'au 24 à 00h UTC


221659Z 2218/2324 09006KT 9999 -RA SCT015
TEMPO 2218/2304 6000 BKN007
PROB40
TEMPO 2218/2303 3000 RADZ BKN004
BECMG 2302/2305 03010KT
PROB40
TEMPO 2306/2312 4000 RA BKN012
BECMG 2309/2312 33012KT
TEMPO 2309/2312 34015G25KT
Pas de NOTAMs connus pour ce terrain.



MET'MAP, la Météo Aéronautique d'un coup d'oeil ! - Copyright ORBIFLY Décembre 2007 - Disclaimer

ORBIFLY MET'MAP TEAM :

Programmation & Développement : Alexandra Zaïnal
Conception & Développement : Baudouin d'Aumeries
Co-Programmation & Développement : Marc-Olivier Méhu
Soutien technique & logistique : Manuel Goepfert

Contact : metmap@orbifly.com




SOURCES & CREDITS :

   NOAA